Time;durP1;ratioP1;P1;durP2;ratioP2;P2;SDS_P1;SDS_P2;PMS_P1;PMS_P2;Temp;Humidity;BMP_temperature;BMP_pressure;BME280_temperature;BME280_humidity;BME280_pressure;Samples;Min_cycle;Max_cycle;Signal;HPM_P1;HPM_P2
2021/01/25 00:03:33;;;;;;;;;66.75;55.50;;;;;;;;12056528;29;8925;-52
2021/01/25 00:09:34;;;;;;;;;59.25;48.75;;;;;;;;12065230;29;8880;-50
2021/01/25 00:15:36;;;;;;;;;59.00;50.00;;;;;;;;12081525;29;8973;-51
2021/01/25 00:21:37;;;;;;;;;43.25;42.00;;;;;;;;12076213;29;8863;-50
2021/01/25 00:27:38;;;;;;;;;59.75;47.25;;;;;;;;12084247;29;8866;-48
2021/01/25 00:33:40;;;;;;;;;56.50;47.50;;;;;;;;12078353;29;8872;-48
2021/01/25 00:39:41;;;;;;;;;56.75;45.25;;;;;;;;12079368;29;8885;-49
2021/01/25 00:45:43;;;;;;;;;49.50;43.75;;;;;;;;12079522;29;8863;-50
2021/01/25 00:51:44;;;;;;;;;34.00;32.50;;;;;;;;12074299;29;9616;-49
2021/01/25 00:57:47;;;;;;;;;41.75;36.50;;;;;;;;12085001;29;8868;-49
2021/01/25 01:03:48;;;;;;;;;34.00;30.25;;;;;;;;12053293;29;8879;-47
2021/01/25 01:09:50;;;;;;;;;36.50;32.75;;;;;;;;12061853;29;8864;-49
2021/01/25 01:15:51;;;;;;;;;41.25;38.25;;;;;;;;12078607;29;8855;-48
2021/01/25 01:21:52;;;;;;;;;34.75;33.50;;;;;;;;12080353;29;8867;-49
2021/01/25 01:27:54;;;;;;;;;35.75;32.00;;;;;;;;12074547;29;9748;-49
2021/01/25 01:33:56;;;;;;;;;38.50;36.25;;;;;;;;12076613;29;8864;-50
2021/01/25 01:39:57;;;;;;;;;37.50;30.25;;;;;;;;12072074;29;8864;-47
2021/01/25 01:45:59;;;;;;;;;31.00;24.75;;;;;;;;12077719;29;8926;-49
2021/01/25 01:52:00;;;;;;;;;30.25;23.75;;;;;;;;12077850;29;8883;-46
2021/01/25 01:58:03;;;;;;;;;20.00;20.00;;;;;;;;12076546;29;9747;-48
2021/01/25 02:04:05;;;;;;;;;20.75;17.50;;;;;;;;12083982;29;8995;-51
2021/01/25 02:10:07;;;;;;;;;17.00;14.50;;;;;;;;12071372;29;8868;-49
2021/01/25 02:16:10;;;;;;;;;17.25;15.25;;;;;;;;12075834;29;8879;-51
2021/01/25 02:22:36;;;;;;;;;24.25;20.00;;;;;;;;12074874;29;9033;-48
2021/01/25 02:28:40;;;;;;;;;24.75;24.25;;;;;;;;12072931;29;8955;-50
2021/01/25 02:34:42;;;;;;;;;31.75;28.50;;;;;;;;12077790;29;8907;-50
2021/01/25 02:40:47;;;;;;;;;28.00;27.00;;;;;;;;12070598;29;8868;-48
2021/01/25 02:46:49;;;;;;;;;28.75;23.50;;;;;;;;12084660;29;9762;-49
2021/01/25 02:52:51;;;;;;;;;28.25;25.75;;;;;;;;12081927;29;8864;-47
2021/01/25 02:58:53;;;;;;;;;25.50;25.00;;;;;;;;12084183;29;8887;-49
2021/01/25 03:04:54;;;;;;;;;29.25;26.50;;;;;;;;12072938;29;9638;-50
2021/01/25 03:10:56;;;;;;;;;26.75;24.00;;;;;;;;12086465;29;8951;-52
2021/01/25 03:16:58;;;;;;;;;19.50;19.50;;;;;;;;12081003;29;8863;-50
2021/01/25 03:22:59;;;;;;;;;20.00;20.00;;;;;;;;12085481;29;9645;-46
2021/01/25 03:29:00;;;;;;;;;22.00;21.25;;;;;;;;12084495;29;8888;-51
2021/01/25 03:35:08;;;;;;;;;25.25;23.00;;;;;;;;12078696;29;8887;-51
2021/01/25 03:41:10;;;;;;;;;21.50;20.75;;;;;;;;12086779;29;9740;-53
2021/01/25 03:47:11;;;;;;;;;27.00;23.50;;;;;;;;12084584;29;8967;-50
2021/01/25 03:53:13;;;;;;;;;20.25;18.75;;;;;;;;12076519;29;8996;-49
2021/01/25 03:59:14;;;;;;;;;32.50;29.00;;;;;;;;12085795;29;8861;-48
2021/01/25 04:05:15;;;;;;;;;26.50;26.00;;;;;;;;12077853;29;8887;-51
2021/01/25 04:11:17;;;;;;;;;30.75;29.50;;;;;;;;12079921;29;8864;-49
2021/01/25 04:17:18;;;;;;;;;38.25;34.00;;;;;;;;12077059;29;8898;-48
2021/01/25 04:23:20;;;;;;;;;35.25;32.75;;;;;;;;12083241;29;8867;-50
2021/01/25 04:29:21;;;;;;;;;35.50;31.25;;;;;;;;12082012;29;8986;-48
2021/01/25 04:35:23;;;;;;;;;37.25;34.75;;;;;;;;12079037;29;8856;-52
2021/01/25 04:41:25;;;;;;;;;45.25;36.50;;;;;;;;12075585;29;9010;-52
2021/01/25 04:47:27;;;;;;;;;29.25;29.25;;;;;;;;12083637;29;8928;-50
2021/01/25 04:53:29;;;;;;;;;41.00;37.00;;;;;;;;12074402;29;9026;-53
2021/01/25 04:59:31;;;;;;;;;34.50;30.50;;;;;;;;12079017;29;8862;-49
2021/01/25 05:05:32;;;;;;;;;39.50;34.50;;;;;;;;12544860;23;8907;-53
2021/01/25 05:11:34;;;;;;;;;34.25;32.25;;;;;;;;12129136;29;8974;-55
2021/01/25 05:17:36;;;;;;;;;32.75;32.75;;;;;;;;12129543;29;8853;-52
2021/01/25 05:23:38;;;;;;;;;40.00;34.00;;;;;;;;12121793;29;8882;-54
2021/01/25 05:29:40;;;;;;;;;30.75;29.75;;;;;;;;12122208;29;8880;-52
2021/01/25 05:35:54;;;;;;;;;34.25;32.50;;;;;;;;12647081;27;14316;-53
2021/01/25 05:41:57;;;;;;;;;37.00;29.50;;;;;;;;12620176;28;8856;-55
2021/01/25 05:47:58;;;;;;;;;37.25;37.25;;;;;;;;12621061;28;8958;-55
2021/01/25 05:54:02;;;;;;;;;40.50;35.00;;;;;;;;12619699;28;8901;-55
2021/01/25 06:00:05;;;;;;;;;47.00;42.50;;;;;;;;12616590;28;8875;-53
2021/01/25 06:06:17;;;;;;;;;39.75;37.75;;;;;;;;12588381;28;8874;-55
2021/01/25 06:12:44;;;;;;;;;42.25;36.50;;;;;;;;12571874;28;8841;-54
2021/01/25 06:18:46;;;;;;;;;41.25;37.75;;;;;;;;12579609;28;8845;-53
2021/01/25 06:24:47;;;;;;;;;42.50;36.25;;;;;;;;12584015;28;8904;-57
2021/01/25 06:30:49;;;;;;;;;40.75;35.00;;;;;;;;12583687;28;8834;-54
2021/01/25 06:36:51;;;;;;;;;40.25;33.75;;;;;;;;12579021;28;9713;-56
2021/01/25 06:42:53;;;;;;;;;30.25;27.75;;;;;;;;12568250;28;8883;-55
2021/01/25 06:48:57;;;;;;;;;44.25;33.75;;;;;;;;12549319;28;8827;-55
2021/01/25 06:55:05;;;;;;;;;52.25;42.75;;;;;;;;12546491;28;8844;-56
2021/01/25 07:01:08;;;;;;;;;48.00;41.00;;;;;;;;12533658;28;8840;-55
2021/01/25 07:07:21;;;;;;;;;52.00;42.75;;;;;;;;12551504;28;8971;-56
2021/01/25 07:13:24;;;;;;;;;42.25;40.00;;;;;;;;12554163;28;8839;-55
2021/01/25 07:19:26;;;;;;;;;50.50;43.25;;;;;;;;12546856;28;8847;-56
2021/01/25 07:25:28;;;;;;;;;42.75;39.50;;;;;;;;12545159;28;9596;-56
2021/01/25 07:31:32;;;;;;;;;48.00;41.50;;;;;;;;12548376;28;8965;-56
2021/01/25 07:37:33;;;;;;;;;55.50;44.00;;;;;;;;12545674;28;8849;-57
2021/01/25 07:43:37;;;;;;;;;55.00;46.50;;;;;;;;12550344;28;8902;-56
2021/01/25 07:49:38;;;;;;;;;59.75;49.50;;;;;;;;12537394;28;8850;-56
2021/01/25 07:55:40;;;;;;;;;55.00;45.25;;;;;;;;12530719;28;9008;-54
2021/01/25 08:01:53;;;;;;;;;57.75;46.00;;;;;;;;12546096;28;8863;-55
2021/01/25 08:07:55;;;;;;;;;57.25;46.75;;;;;;;;12541294;28;8885;-53
2021/01/25 08:14:01;;;;;;;;;64.25;52.00;;;;;;;;12548733;28;8843;-53
2021/01/25 08:20:11;;;;;;;;;59.25;51.00;;;;;;;;12537292;28;8876;-55
2021/01/25 08:26:20;;;;;;;;;51.75;42.75;;;;;;;;12547906;28;8834;-55
2021/01/25 08:32:28;;;;;;;;;65.00;52.25;;;;;;;;12535838;28;8860;-52
2021/01/25 08:38:34;;;;;;;;;52.50;42.75;;;;;;;;12540239;28;8820;-58
2021/01/25 08:44:36;;;;;;;;;52.00;44.00;;;;;;;;12543559;28;8840;-57
2021/01/25 08:50:38;;;;;;;;;47.50;41.25;;;;;;;;12543296;28;8838;-58
2021/01/25 08:56:41;;;;;;;;;55.50;45.25;;;;;;;;12540241;28;8834;-57
2021/01/25 09:02:46;;;;;;;;;58.75;46.75;;;;;;;;12544332;28;8827;-56
2021/01/25 09:08:47;;;;;;;;;63.75;49.50;;;;;;;;12547093;28;8949;-54
2021/01/25 09:14:49;;;;;;;;;57.25;46.50;;;;;;;;12546637;28;9615;-53
2021/01/25 09:20:50;;;;;;;;;55.25;45.25;;;;;;;;12543438;28;9572;-54
2021/01/25 09:26:52;;;;;;;;;56.00;42.50;;;;;;;;12543888;28;8828;-57
2021/01/25 09:32:54;;;;;;;;;43.00;39.75;;;;;;;;12540666;28;8850;-55
2021/01/25 09:38:56;;;;;;;;;44.25;39.00;;;;;;;;12558313;28;8851;-58
2021/01/25 09:44:58;;;;;;;;;46.00;40.00;;;;;;;;12547544;28;8883;-56
2021/01/25 09:50:59;;;;;;;;;42.50;35.00;;;;;;;;12533994;28;8856;-58
2021/01/25 09:57:01;;;;;;;;;40.75;39.00;;;;;;;;12540063;28;8832;-61
2021/01/25 10:03:02;;;;;;;;;46.50;41.25;;;;;;;;12528428;28;8854;-56
2021/01/25 10:09:04;;;;;;;;;37.50;34.00;;;;;;;;12533647;28;8824;-58
2021/01/25 10:15:10;;;;;;;;;51.00;42.50;;;;;;;;12540074;28;8848;-58
2021/01/25 10:21:12;;;;;;;;;45.75;40.00;;;;;;;;12551006;28;8828;-58
2021/01/25 10:27:14;;;;;;;;;57.75;49.75;;;;;;;;12541939;28;8832;-54
2021/01/25 10:33:15;;;;;;;;;48.00;40.25;;;;;;;;12541414;28;8829;-55
2021/01/25 10:39:17;;;;;;;;;51.50;45.00;;;;;;;;12549072;28;8904;-56
2021/01/25 10:45:18;;;;;;;;;33.75;33.00;;;;;;;;12548852;28;8864;-58
2021/01/25 10:51:21;;;;;;;;;19.75;15.50;;;;;;;;12546937;28;8856;-57
2021/01/25 10:57:22;;;;;;;;;10.50;10.00;;;;;;;;12552186;28;8831;-57
2021/01/25 11:03:24;;;;;;;;;8.00;6.00;;;;;;;;12542903;28;8860;-59
2021/01/25 11:09:25;;;;;;;;;4.00;4.00;;;;;;;;12539400;28;9678;-53
2021/01/25 11:15:28;;;;;;;;;6.50;6.00;;;;;;;;12526630;28;8882;-56
2021/01/25 11:21:29;;;;;;;;;8.00;8.00;;;;;;;;12554425;28;8854;-57
2021/01/25 11:27:31;;;;;;;;;7.00;7.00;;;;;;;;12560957;28;8883;-58
2021/01/25 11:33:32;;;;;;;;;7.75;7.00;;;;;;;;12543455;28;8883;-61
2021/01/25 11:39:34;;;;;;;;;11.00;7.00;;;;;;;;12544521;28;8935;-56
2021/01/25 11:45:37;;;;;;;;;10.00;8.00;;;;;;;;12549271;28;8844;-58
2021/01/25 11:51:38;;;;;;;;;24.00;21.75;;;;;;;;12547804;28;8890;-57
2021/01/25 11:57:40;;;;;;;;;6.00;5.00;;;;;;;;12544481;28;8844;-54
2021/01/25 12:03:41;;;;;;;;;28.50;28.50;;;;;;;;12529560;28;8850;-54
2021/01/25 12:09:43;;;;;;;;;4.25;4.25;;;;;;;;12542659;28;8878;-53
2021/01/25 12:15:44;;;;;;;;;7.00;7.00;;;;;;;;12535365;28;8878;-53
2021/01/25 12:21:46;;;;;;;;;10.50;10.25;;;;;;;;12546421;28;8823;-56
2021/01/25 12:27:49;;;;;;;;;9.75;8.00;;;;;;;;12534150;28;8825;-59
2021/01/25 12:33:54;;;;;;;;;5.50;4.00;;;;;;;;12538191;28;8850;-53
2021/01/25 12:39:55;;;;;;;;;14.00;14.00;;;;;;;;12543496;28;8835;-54
2021/01/25 12:45:57;;;;;;;;;14.00;10.50;;;;;;;;12549225;28;8834;-55
2021/01/25 12:51:58;;;;;;;;;4.50;4.50;;;;;;;;12540865;28;8843;-57
2021/01/25 12:58:00;;;;;;;;;5.50;4.50;;;;;;;;12542481;28;8863;-57
2021/01/25 13:04:01;;;;;;;;;6.25;6.25;;;;;;;;12544062;28;8844;-58
2021/01/25 13:10:04;;;;;;;;;7.50;6.50;;;;;;;;12533687;28;8839;-55
2021/01/25 13:16:07;;;;;;;;;4.50;4.50;;;;;;;;12541516;28;8836;-57
2021/01/25 13:22:09;;;;;;;;;4.00;4.00;;;;;;;;12549565;28;8924;-54
2021/01/25 13:28:11;;;;;;;;;10.00;10.00;;;;;;;;12547221;28;8834;-60
2021/01/25 13:34:12;;;;;;;;;4.50;4.50;;;;;;;;12549299;28;8974;-58
2021/01/25 13:40:14;;;;;;;;;7.25;5.75;;;;;;;;12544447;28;8861;-61
2021/01/25 13:46:16;;;;;;;;;4.00;4.00;;;;;;;;12533759;28;8834;-60
2021/01/25 13:52:18;;;;;;;;;11.00;8.00;;;;;;;;12551702;28;8847;-58
2021/01/25 13:58:20;;;;;;;;;5.00;5.00;;;;;;;;12541451;28;8869;-58
2021/01/25 14:04:21;;;;;;;;;8.75;7.00;;;;;;;;12535884;28;9549;-55
2021/01/25 14:10:23;;;;;;;;;7.00;5.00;;;;;;;;12554497;28;8843;-55
2021/01/25 14:16:25;;;;;;;;;8.50;7.75;;;;;;;;12551975;28;8827;-57
2021/01/25 14:22:28;;;;;;;;;10.25;9.25;;;;;;;;12541628;28;8870;-59
2021/01/25 14:28:30;;;;;;;;;12.00;11.00;;;;;;;;12525379;28;9622;-56
2021/01/25 14:34:31;;;;;;;;;12.50;11.00;;;;;;;;12534996;28;8948;-54
2021/01/25 14:40:33;;;;;;;;;11.25;11.25;;;;;;;;12550199;28;8857;-55
2021/01/25 14:46:34;;;;;;;;;10.00;10.00;;;;;;;;12551875;28;8961;-58
2021/01/25 14:52:37;;;;;;;;;13.50;11.50;;;;;;;;12553274;28;8836;-60
2021/01/25 14:58:41;;;;;;;;;14.00;14.00;;;;;;;;12553927;28;8851;-57
2021/01/25 15:04:42;;;;;;;;;11.00;11.00;;;;;;;;12547098;28;8826;-58
2021/01/25 15:10:44;;;;;;;;;7.50;6.00;;;;;;;;12555118;28;9611;-58
2021/01/25 15:16:46;;;;;;;;;16.75;11.50;;;;;;;;12546996;28;8860;-61
2021/01/25 15:22:50;;;;;;;;;14.00;13.50;;;;;;;;12550189;28;8874;-58
2021/01/25 15:28:51;;;;;;;;;14.25;14.25;;;;;;;;12556499;28;9619;-58
2021/01/25 15:34:53;;;;;;;;;16.75;15.25;;;;;;;;12545252;28;8844;-58
2021/01/25 15:40:56;;;;;;;;;18.50;15.50;;;;;;;;12553415;28;8827;-58
2021/01/25 15:46:58;;;;;;;;;13.75;12.75;;;;;;;;12550928;28;8840;-59
2021/01/25 15:53:00;;;;;;;;;12.00;10.00;;;;;;;;12551700;28;8850;-58
2021/01/25 15:59:01;;;;;;;;;15.25;14.50;;;;;;;;12540760;28;8838;-59
2021/01/25 16:05:08;;;;;;;;;14.25;14.25;;;;;;;;12538339;28;9650;-61
2021/01/25 16:11:12;;;;;;;;;17.50;16.25;;;;;;;;12541218;28;8953;-57
2021/01/25 16:17:17;;;;;;;;;18.50;14.25;;;;;;;;12530401;28;8834;-58
2021/01/25 16:23:19;;;;;;;;;16.00;16.00;;;;;;;;12550598;28;8912;-58
2021/01/25 16:29:20;;;;;;;;;11.00;9.00;;;;;;;;12539473;28;8928;-57
2021/01/25 16:35:23;;;;;;;;;19.75;17.50;;;;;;;;12544565;28;8867;-57
2021/01/25 16:41:25;;;;;;;;;13.50;13.50;;;;;;;;12540591;28;8846;-58
2021/01/25 16:47:27;;;;;;;;;12.00;10.00;;;;;;;;12516301;28;8833;-57
2021/01/25 16:53:29;;;;;;;;;17.00;14.25;;;;;;;;12536403;28;8855;-58
2021/01/25 16:59:34;;;;;;;;;9.00;8.50;;;;;;;;12540638;28;8877;-58
2021/01/25 17:05:46;;;;;;;;;13.50;11.00;;;;;;;;12548336;28;8891;-60
2021/01/25 17:11:47;;;;;;;;;20.25;15.00;;;;;;;;12543835;28;8931;-57
2021/01/25 17:17:50;;;;;;;;;23.75;19.00;;;;;;;;12539309;28;8848;-58
2021/01/25 17:24:08;;;;;;;;;19.00;17.00;;;;;;;;12544736;28;9639;-55
2021/01/25 17:30:11;;;;;;;;;17.25;16.00;;;;;;;;12546289;28;8960;-59
2021/01/25 17:36:12;;;;;;;;;13.25;11.75;;;;;;;;12547928;28;8846;-58
2021/01/25 17:42:15;;;;;;;;;19.50;18.50;;;;;;;;12550075;28;10132;-54
2021/01/25 17:48:17;;;;;;;;;17.00;14.00;;;;;;;;12547912;28;8872;-56
2021/01/25 17:54:19;;;;;;;;;18.00;18.00;;;;;;;;12544863;28;8958;-58
2021/01/25 18:00:23;;;;;;;;;12.50;12.25;;;;;;;;12535868;28;8876;-55
2021/01/25 18:06:24;;;;;;;;;16.25;14.75;;;;;;;;12512747;28;8861;-56
2021/01/25 18:12:28;;;;;;;;;16.50;16.50;;;;;;;;12525930;28;8850;-59
2021/01/25 18:18:29;;;;;;;;;12.75;12.75;;;;;;;;12543208;28;8861;-54
2021/01/25 18:24:33;;;;;;;;;19.25;17.75;;;;;;;;12536633;28;9717;-56
2021/01/25 18:30:35;;;;;;;;;14.50;14.00;;;;;;;;12526796;28;8850;-56
2021/01/25 18:36:37;;;;;;;;;11.50;11.50;;;;;;;;12540364;28;8853;-57
2021/01/25 18:42:38;;;;;;;;;17.50;17.00;;;;;;;;12541441;28;8854;-58
2021/01/25 18:48:40;;;;;;;;;15.75;13.50;;;;;;;;12549782;28;8863;-56
2021/01/25 18:54:41;;;;;;;;;16.50;16.50;;;;;;;;12545877;28;8933;-57
2021/01/25 19:00:44;;;;;;;;;16.00;14.25;;;;;;;;12546549;28;9625;-57
2021/01/25 19:06:46;;;;;;;;;24.25;21.25;;;;;;;;12550551;28;9665;-54
2021/01/25 19:12:48;;;;;;;;;21.00;21.00;;;;;;;;12510605;28;8912;-57
2021/01/25 19:18:50;;;;;;;;;20.75;19.50;;;;;;;;12550011;28;8832;-55
2021/01/25 19:24:58;;;;;;;;;18.50;14.25;;;;;;;;12547998;28;8853;-55
2021/01/25 19:31:00;;;;;;;;;21.25;21.25;;;;;;;;12546817;28;8962;-57
2021/01/25 19:37:06;;;;;;;;;21.25;18.25;;;;;;;;12548001;28;8907;-57
2021/01/25 19:43:11;;;;;;;;;16.00;14.75;;;;;;;;12552243;28;8874;-57
2021/01/25 19:49:12;;;;;;;;;22.50;18.75;;;;;;;;12549553;28;8868;-56
2021/01/25 19:55:16;;;;;;;;;20.25;18.25;;;;;;;;12549932;28;8844;-54
2021/01/25 20:01:20;;;;;;;;;12.25;12.25;;;;;;;;12554143;28;9582;-56
2021/01/25 20:07:21;;;;;;;;;19.50;18.00;;;;;;;;12525761;28;8862;-57
2021/01/25 20:13:22;;;;;;;;;22.50;19.50;;;;;;;;12529663;28;8853;-55
2021/01/25 20:19:24;;;;;;;;;13.50;13.50;;;;;;;;12542814;28;9621;-54
2021/01/25 20:25:35;;;;;;;;;22.00;22.00;;;;;;;;12516479;28;9638;-53
2021/01/25 20:31:37;;;;;;;;;18.50;18.50;;;;;;;;12537436;28;8845;-55
2021/01/25 20:37:38;;;;;;;;;26.00;22.50;;;;;;;;12540024;28;8871;-57
2021/01/25 20:43:40;;;;;;;;;19.00;19.00;;;;;;;;12535102;28;9635;-57
2021/01/25 20:49:42;;;;;;;;;17.25;16.00;;;;;;;;12543484;28;8868;-57
2021/01/25 20:55:45;;;;;;;;;25.25;23.50;;;;;;;;12538783;28;8849;-56
2021/01/25 21:01:46;;;;;;;;;29.25;27.25;;;;;;;;12545502;28;8860;-54
2021/01/25 21:07:49;;;;;;;;;29.75;23.75;;;;;;;;12540463;28;8873;-54
2021/01/25 21:13:52;;;;;;;;;21.50;21.25;;;;;;;;12538416;28;8858;-52
2021/01/25 21:19:53;;;;;;;;;21.25;21.25;;;;;;;;12544826;28;8835;-52
2021/01/25 21:25:55;;;;;;;;;26.00;26.00;;;;;;;;12542865;28;8822;-57
2021/01/25 21:32:00;;;;;;;;;26.00;21.50;;;;;;;;12544580;28;8863;-56
2021/01/25 21:38:07;;;;;;;;;28.00;27.25;;;;;;;;12541656;28;8838;-54
2021/01/25 21:44:08;;;;;;;;;24.50;22.50;;;;;;;;12545484;28;8866;-53
2021/01/25 21:50:11;;;;;;;;;24.00;24.00;;;;;;;;12543709;28;8844;-56
2021/01/25 21:56:13;;;;;;;;;30.33;23.00;;;;;;;;12548846;28;8826;-56
2021/01/25 22:02:14;;;;;;;;;34.50;27.50;;;;;;;;12547819;28;8852;-54
2021/01/25 22:08:16;;;;;;;;;30.00;27.50;;;;;;;;12540830;28;8855;-55
2021/01/25 22:14:17;;;;;;;;;22.50;19.00;;;;;;;;12548093;28;8846;-53
2021/01/25 22:20:21;;;;;;;;;33.50;27.75;;;;;;;;12542975;28;8883;-53
2021/01/25 22:26:24;;;;;;;;;30.00;24.75;;;;;;;;12540867;28;8960;-54
2021/01/25 22:32:26;;;;;;;;;24.50;24.50;;;;;;;;12549416;28;8834;-56
2021/01/25 22:38:28;;;;;;;;;27.25;23.75;;;;;;;;12538959;28;8861;-57
2021/01/25 22:44:29;;;;;;;;;28.50;24.00;;;;;;;;12542793;28;8856;-53
2021/01/25 22:50:31;;;;;;;;;24.50;24.50;;;;;;;;12543598;28;8828;-55
2021/01/25 22:56:32;;;;;;;;;28.50;25.25;;;;;;;;12539060;28;8929;-56
2021/01/25 23:02:34;;;;;;;;;33.25;25.75;;;;;;;;12550819;28;8838;-56
2021/01/25 23:08:37;;;;;;;;;25.00;25.00;;;;;;;;12542573;28;8998;-56
2021/01/25 23:14:38;;;;;;;;;24.50;22.00;;;;;;;;12553345;28;8854;-56
2021/01/25 23:20:41;;;;;;;;;30.50;27.75;;;;;;;;12546247;28;8836;-56
2021/01/25 23:26:43;;;;;;;;;28.00;25.50;;;;;;;;12548168;28;8928;-55
2021/01/25 23:32:45;;;;;;;;;27.75;24.75;;;;;;;;12556283;28;8876;-54
2021/01/25 23:38:47;;;;;;;;;26.25;24.75;;;;;;;;12547118;28;8907;-55
2021/01/25 23:44:52;;;;;;;;;26.25;24.75;;;;;;;;12553181;28;8957;-54
2021/01/25 23:50:55;;;;;;;;;27.25;23.75;;;;;;;;12549014;28;8829;-54
2021/01/25 23:56:56;;;;;;;;;32.75;22.50;;;;;;;;12547566;28;8853;-54
